sensor_id;sensor_type;location;lat;lon;timestamp;temperature;humidity
5286;DHT22;2665;53.112;7.358;2023-07-28T12:40:32;26.90;1.00
5286;DHT22;2665;53.112;7.358;2023-07-28T12:43:00;27.10;1.00
5286;DHT22;2665;53.112;7.358;2023-07-28T12:45:26;26.70;1.00
5286;DHT22;2665;53.112;7.358;2023-07-28T12:47:53;26.90;1.00
5286;DHT22;2665;53.112;7.358;2023-07-28T12:50:22;27.00;1.00
5286;DHT22;2665;53.112;7.358;2023-07-28T12:52:48;26.50;1.00
5286;DHT22;2665;53.112;7.358;2023-07-28T12:55:14;25.90;1.00
5286;DHT22;2665;53.112;7.358;2023-07-28T12:57:41;25.90;1.00
5286;DHT22;2665;53.112;7.358;2023-07-28T13:00:07;25.90;1.00
5286;DHT22;2665;53.112;7.358;2023-07-28T13:02:45;26.30;1.00
5286;DHT22;2665;53.112;7.358;2023-07-28T13:05:12;26.40;1.00
5286;DHT22;2665;53.112;7.358;2023-07-28T13:07:39;26.50;1.00
5286;DHT22;2665;53.112;7.358;2023-07-28T13:10:07;26.40;1.00
5286;DHT22;2665;53.112;7.358;2023-07-28T13:12:35;27.10;1.00
5286;DHT22;2665;53.112;7.358;2023-07-28T13:15:01;27.20;1.00
5286;DHT22;2665;53.112;7.358;2023-07-28T13:17:27;26.70;1.00
5286;DHT22;2665;53.112;7.358;2023-07-28T13:19:52;26.20;1.00
5286;DHT22;2665;53.112;7.358;2023-07-28T13:22:18;25.80;1.00
5286;DHT22;2665;53.112;7.358;2023-07-28T13:24:43;25.30;1.00
5286;DHT22;2665;53.112;7.358;2023-07-28T13:27:09;25.10;1.00
5286;DHT22;2665;53.112;7.358;2023-07-28T13:29:35;25.00;1.00
5286;DHT22;2665;53.112;7.358;2023-07-28T13:32:00;25.30;1.00
5286;DHT22;2665;53.112;7.358;2023-07-28T13:34:27;26.30;1.00
5286;DHT22;2665;53.112;7.358;2023-07-28T13:36:54;26.20;1.00
5286;DHT22;2665;53.112;7.358;2023-07-28T14:55:07;26.20;1.00
5286;DHT22;2665;53.112;7.358;2023-07-28T14:57:33;26.80;11.40
5286;DHT22;2665;53.112;7.358;2023-07-28T15:04:50;29.30;1.00
5286;DHT22;2665;53.112;7.358;2023-07-28T15:07:18;30.00;1.00
5286;DHT22;2665;53.112;7.358;2023-07-28T15:09:44;30.40;1.00
5286;DHT22;2665;53.112;7.358;2023-07-28T15:12:10;30.10;1.00
5286;DHT22;2665;53.112;7.358;2023-07-28T15:14:36;29.90;1.00
5286;DHT22;2665;53.112;7.358;2023-07-28T15:17:01;29.90;1.00
5286;DHT22;2665;53.112;7.358;2023-07-28T15:19:27;30.60;1.00
5286;DHT22;2665;53.112;7.358;2023-07-28T15:21:52;31.10;1.00
5286;DHT22;2665;53.112;7.358;2023-07-28T15:24:18;31.70;1.00
5286;DHT22;2665;53.112;7.358;2023-07-28T15:26:46;31.90;1.00
5286;DHT22;2665;53.112;7.358;2023-07-28T15:29:13;30.90;1.00
5286;DHT22;2665;53.112;7.358;2023-07-28T15:31:39;30.00;1.00
5286;DHT22;2665;53.112;7.358;2023-07-28T15:34:04;29.00;1.00
5286;DHT22;2665;53.112;7.358;2023-07-28T15:36:30;28.30;1.00
5286;DHT22;2665;53.112;7.358;2023-07-28T15:38:56;27.60;1.00
5286;DHT22;2665;53.112;7.358;2023-07-28T15:41:24;27.10;1.00
5286;DHT22;2665;53.112;7.358;2023-07-28T15:43:49;26.60;1.00
5286;DHT22;2665;53.112;7.358;2023-07-28T15:46:15;26.30;1.00
5286;DHT22;2665;53.112;7.358;2023-07-28T15:48:41;26.00;1.00
5286;DHT22;2665;53.112;7.358;2023-07-28T15:51:06;25.70;1.00
5286;DHT22;2665;53.112;7.358;2023-07-28T15:53:32;25.40;1.00
5286;DHT22;2665;53.112;7.358;2023-07-28T15:55:58;25.20;1.00
5286;DHT22;2665;53.112;7.358;2023-07-28T15:58:23;25.10;1.00
5286;DHT22;2665;53.112;7.358;2023-07-28T16:00:49;25.20;1.00
5286;DHT22;2665;53.112;7.358;2023-07-28T16:05:40;27.40;1.00
5286;DHT22;2665;53.112;7.358;2023-07-28T16:08:06;27.90;1.00
5286;DHT22;2665;53.112;7.358;2023-07-28T16:10:32;28.20;1.00
5286;DHT22;2665;53.112;7.358;2023-07-28T16:12:57;28.50;1.00
5286;DHT22;2665;53.112;7.358;2023-07-28T16:15:23;28.00;1.00
5286;DHT22;2665;53.112;7.358;2023-07-28T16:17:49;27.40;1.00
5286;DHT22;2665;53.112;7.358;2023-07-28T16:20:15;26.80;1.00
5286;DHT22;2665;53.112;7.358;2023-07-28T16:22:40;26.30;1.00
5286;DHT22;2665;53.112;7.358;2023-07-28T16:25:06;25.90;1.00
5286;DHT22;2665;53.112;7.358;2023-07-28T16:27:32;25.60;1.00
5286;DHT22;2665;53.112;7.358;2023-07-28T16:29:58;25.30;1.00
5286;DHT22;2665;53.112;7.358;2023-07-28T16:32:23;25.00;1.00
5286;DHT22;2665;53.112;7.358;2023-07-28T16:34:49;24.90;1.00
5286;DHT22;2665;53.112;7.358;2023-07-28T16:37:14;24.70;1.00
5286;DHT22;2665;53.112;7.358;2023-07-28T16:39:40;24.60;1.00
5286;DHT22;2665;53.112;7.358;2023-07-28T16:44:33;25.10;1.00
5286;DHT22;2665;53.112;7.358;2023-07-28T16:46:59;25.10;1.90
5286;DHT22;2665;53.112;7.358;2023-07-28T16:49:24;25.70;4.80
5286;DHT22;2665;53.112;7.358;2023-07-28T16:51:51;26.20;9.70
5286;DHT22;2665;53.112;7.358;2023-07-28T16:54:16;26.30;12.30
5286;DHT22;2665;53.112;7.358;2023-07-28T16:56:42;26.50;1.00
5286;DHT22;2665;53.112;7.358;2023-07-28T16:59:08;26.60;1.00
5286;DHT22;2665;53.112;7.358;2023-07-28T17:13:44;26.50;1.00
5286;DHT22;2665;53.112;7.358;2023-07-28T17:16:09;26.30;1.00
5286;DHT22;2665;53.112;7.358;2023-07-28T17:18:35;25.90;1.00
5286;DHT22;2665;53.112;7.358;2023-07-28T17:21:01;25.60;1.00
5286;DHT22;2665;53.112;7.358;2023-07-28T17:23:26;25.30;1.00
5286;DHT22;2665;53.112;7.358;2023-07-28T17:25:52;24.90;1.00
5286;DHT22;2665;53.112;7.358;2023-07-28T17:28:18;24.70;1.00
5286;DHT22;2665;53.112;7.358;2023-07-28T17:30:43;24.50;1.00
5286;DHT22;2665;53.112;7.358;2023-07-28T17:33:09;24.20;1.00
5286;DHT22;2665;53.112;7.358;2023-07-28T17:35:35;24.00;1.00
5286;DHT22;2665;53.112;7.358;2023-07-28T17:38:00;24.00;1.00
5286;DHT22;2665;53.112;7.358;2023-07-28T17:40:27;23.90;1.00
5286;DHT22;2665;53.112;7.358;2023-07-28T17:42:52;23.80;1.00
5286;DHT22;2665;53.112;7.358;2023-07-28T17:45:18;23.80;1.00
5286;DHT22;2665;53.112;7.358;2023-07-28T17:47:43;23.70;1.00
5286;DHT22;2665;53.112;7.358;2023-07-28T17:50:09;23.70;1.00
5286;DHT22;2665;53.112;7.358;2023-07-28T17:52:36;23.70;1.00
5286;DHT22;2665;53.112;7.358;2023-07-28T17:55:02;23.70;1.00
5286;DHT22;2665;53.112;7.358;2023-07-28T17:57:28;23.70;1.00
5286;DHT22;2665;53.112;7.358;2023-07-28T17:59:54;23.70;1.00
5286;DHT22;2665;53.112;7.358;2023-07-28T18:02:20;23.80;1.00
5286;DHT22;2665;53.112;7.358;2023-07-28T18:04:46;23.80;1.00
5286;DHT22;2665;53.112;7.358;2023-07-28T18:07:11;23.90;1.00
5286;DHT22;2665;53.112;7.358;2023-07-28T18:09:37;23.90;1.00
5286;DHT22;2665;53.112;7.358;2023-07-28T18:12:03;23.90;1.00
5286;DHT22;2665;53.112;7.358;2023-07-28T18:14:28;23.90;1.00
5286;DHT22;2665;53.112;7.358;2023-07-28T18:16:54;23.90;1.00
5286;DHT22;2665;53.112;7.358;2023-07-28T18:19:19;23.90;1.00
5286;DHT22;2665;53.112;7.358;2023-07-28T18:21:45;23.80;1.00
5286;DHT22;2665;53.112;7.358;2023-07-28T18:24:11;23.80;1.00
5286;DHT22;2665;53.112;7.358;2023-07-28T18:26:38;23.70;1.00
